createdAt,value
2023-02-03T00:01:27.321Z,10.70
2023-02-03T00:04:30.440Z,10.40
2023-02-03T00:07:34.938Z,11.13
2023-02-03T00:10:40.968Z,10.63
2023-02-03T00:13:44.114Z,10.90
2023-02-03T00:16:47.274Z,11.60
2023-02-03T00:19:50.602Z,11.40
2023-02-03T00:22:53.754Z,10.90
2023-02-03T00:25:58.651Z,10.73
2023-02-03T00:29:01.994Z,11.50
2023-02-03T00:32:05.699Z,10.87
2023-02-03T00:35:09.537Z,12.10
2023-02-03T00:38:12.679Z,11.90
2023-02-03T00:41:17.255Z,12.20
2023-02-03T00:44:20.589Z,12.50
2023-02-03T00:47:23.880Z,12.90
2023-02-03T00:50:27.599Z,11.37
2023-02-03T00:53:30.836Z,11.87
2023-02-03T00:56:35.367Z,12.03
2023-02-03T00:59:38.481Z,10.50
2023-02-03T01:02:41.684Z,10.97
2023-02-03T01:05:44.835Z,10.97
2023-02-03T01:08:48.865Z,10.10
2023-02-03T01:11:53.423Z,11.60
2023-02-03T01:14:56.609Z,12.07
2023-02-03T01:17:59.731Z,11.13
2023-02-03T01:21:07.928Z,11.40
2023-02-03T01:24:11.129Z,10.00
2023-02-03T01:27:15.657Z,9.03
2023-02-03T01:30:19.410Z,9.07
2023-02-03T01:33:22.575Z,9.10
2023-02-03T01:36:27.259Z,8.77
2023-02-03T01:39:30.419Z,9.03
2023-02-03T01:42:35.487Z,10.37
2023-02-03T01:45:39.691Z,10.20
2023-02-03T01:48:43.281Z,10.70
2023-02-03T01:51:47.775Z,10.50
2023-02-03T01:54:53.283Z,8.97
2023-02-03T01:58:02.891Z,9.63
2023-02-03T02:01:06.304Z,8.50
2023-02-03T02:04:10.112Z,8.87
2023-02-03T02:07:13.817Z,8.70
2023-02-03T02:10:17.177Z,8.37
2023-02-03T02:13:22.824Z,8.97
2023-02-03T02:16:36.271Z,11.00
2023-02-03T02:20:02.022Z,11.73
2023-02-03T02:23:41.331Z,12.53
2023-02-03T02:26:56.130Z,12.40
2023-02-03T02:30:43.967Z,13.23
2023-02-03T02:33:55.911Z,13.10
2023-02-03T02:37:05.835Z,11.83
2023-02-03T02:40:16.966Z,13.47
2023-02-03T02:43:26.743Z,13.23
2023-02-03T02:46:35.577Z,14.77
2023-02-03T02:49:45.948Z,13.70
2023-02-03T02:52:51.271Z,11.93
2023-02-03T02:55:57.139Z,13.93
2023-02-03T02:59:02.860Z,13.50
2023-02-03T03:02:05.988Z,12.50
2023-02-03T03:05:13.292Z,13.17
2023-02-03T03:08:20.096Z,12.53
2023-02-03T03:11:24.453Z,12.30
2023-02-03T03:14:32.679Z,12.30
2023-02-03T03:17:41.714Z,9.60
2023-02-03T03:20:51.713Z,10.20
2023-02-03T03:23:58.317Z,9.43
2023-02-03T03:27:08.080Z,8.97
2023-02-03T03:30:17.712Z,8.47
2023-02-03T03:33:22.063Z,7.90
2023-02-03T03:36:30.352Z,8.60
2023-02-03T03:39:43.069Z,7.20
2023-02-03T03:42:51.034Z,8.03
2023-02-03T03:45:59.493Z,7.50
2023-02-03T03:49:05.196Z,9.30
2023-02-03T03:52:11.785Z,9.30
2023-02-03T03:55:17.909Z,10.10
2023-02-03T03:58:25.927Z,11.90
2023-02-03T04:01:30.432Z,11.63
2023-02-03T04:04:36.514Z,11.80
2023-02-03T04:07:43.648Z,12.60
2023-02-03T04:10:47.013Z,13.30
2023-02-03T04:13:50.226Z,13.37
2023-02-03T04:16:53.344Z,16.23
2023-02-03T04:19:56.490Z,16.03
2023-02-03T04:23:01.725Z,14.20
2023-02-03T04:26:05.011Z,16.27
2023-02-03T04:29:08.512Z,16.97
2023-02-03T04:32:11.720Z,18.40
2023-02-03T04:35:15.087Z,18.37
2023-02-03T04:38:19.596Z,16.73
2023-02-03T04:41:22.760Z,18.23
2023-02-03T04:44:25.928Z,17.33
2023-02-03T04:47:29.092Z,16.50
2023-02-03T04:50:32.307Z,19.50
2023-02-03T04:53:37.282Z,16.33
2023-02-03T04:56:40.422Z,16.73
2023-02-03T04:59:43.543Z,17.77
2023-02-03T05:02:46.662Z,16.00
2023-02-03T05:05:51.095Z,15.93
2023-02-03T05:08:56.185Z,15.20
2023-02-03T05:11:59.331Z,16.00
2023-02-03T05:15:02.472Z,16.37
2023-02-03T05:18:05.709Z,15.80
2023-02-03T05:21:09.159Z,15.60
2023-02-03T05:24:13.805Z,15.63
2023-02-03T05:27:16.946Z,15.40
2023-02-03T05:30:20.509Z,16.77
2023-02-03T05:33:23.597Z,15.50
2023-02-03T05:36:26.795Z,15.57
2023-02-03T05:39:31.311Z,16.10
2023-02-03T05:42:33.485Z,16.00
2023-02-03T05:45:36.670Z,14.07
2023-02-03T05:48:39.831Z,13.90
2023-02-03T05:51:43.492Z,13.60
2023-02-03T05:54:47.989Z,13.50
2023-02-03T05:57:51.065Z,12.33
2023-02-03T06:00:54.227Z,14.10
2023-02-03T06:03:57.503Z,13.40
2023-02-03T06:07:00.689Z,12.97
2023-02-03T06:10:06.119Z,12.83
2023-02-03T06:13:11.298Z,13.50
2023-02-03T06:16:14.633Z,12.00
2023-02-03T06:19:17.791Z,11.40
2023-02-03T06:22:20.979Z,11.20
2023-02-03T06:25:25.532Z,10.97
2023-02-03T06:28:28.812Z,11.20
2023-02-03T06:31:32.064Z,10.67
2023-02-03T06:34:35.281Z,10.60
2023-02-03T06:37:38.569Z,10.27
2023-02-03T06:40:43.149Z,9.97
2023-02-03T06:43:46.280Z,11.00
2023-02-03T06:46:50.778Z,11.23
2023-02-03T06:49:54.044Z,9.60
2023-02-03T06:52:57.225Z,11.77
2023-02-03T06:56:02.195Z,11.10
2023-02-03T06:59:05.819Z,10.57
2023-02-03T07:02:09.013Z,11.53
2023-02-03T07:05:12.483Z,10.10
2023-02-03T07:08:15.628Z,10.13
2023-02-03T07:11:20.147Z,10.50
2023-02-03T07:14:23.298Z,9.53
2023-02-03T07:17:26.411Z,9.63
2023-02-03T07:20:30.196Z,9.63
2023-02-03T07:23:33.702Z,9.10
2023-02-03T07:26:39.228Z,7.83
2023-02-03T07:29:42.385Z,8.53
2023-02-03T07:32:49.602Z,8.63
2023-02-03T07:35:53.735Z,8.80
2023-02-03T07:38:57.081Z,8.50
2023-02-03T07:42:01.729Z,6.83
2023-02-03T07:45:05.268Z,5.80
2023-02-03T07:48:08.514Z,5.67
2023-02-03T07:51:11.697Z,5.13
2023-02-03T07:54:15.385Z,5.40
2023-02-03T07:57:19.941Z,5.27
2023-02-03T08:00:23.647Z,4.63
2023-02-03T08:03:26.853Z,5.33
2023-02-03T08:06:30.833Z,5.10
2023-02-03T08:09:34.149Z,5.63
2023-02-03T08:12:39.134Z,12.10
2023-02-03T08:15:42.294Z,13.33
2023-02-03T08:18:45.430Z,13.60
2023-02-03T08:21:48.575Z,14.60
2023-02-03T08:24:51.706Z,14.23
2023-02-03T08:27:56.324Z,13.70
2023-02-03T08:30:59.654Z,12.50
2023-02-03T08:34:14.641Z,13.07
2023-02-03T08:37:20.872Z,15.70
2023-02-03T08:40:24.166Z,16.40
2023-02-03T08:43:28.757Z,15.57
2023-02-03T08:46:31.981Z,15.90
2023-02-03T08:49:39.365Z,15.47
2023-02-03T08:52:42.852Z,17.10
2023-02-03T08:55:46.090Z,18.20
2023-02-03T08:58:50.666Z,18.20
2023-02-03T09:01:54.185Z,17.20
2023-02-03T09:04:57.430Z,17.40
2023-02-03T09:08:00.772Z,16.60
2023-02-03T09:11:04.149Z,18.10
2023-02-03T09:14:08.870Z,16.20
2023-02-03T09:17:12.405Z,16.23
2023-02-03T09:20:15.677Z,15.83
2023-02-03T09:23:18.907Z,15.87
2023-02-03T09:26:22.172Z,14.90
2023-02-03T09:29:26.751Z,16.07
2023-02-03T09:32:29.984Z,12.53
2023-02-03T09:35:33.136Z,12.43
2023-02-03T09:38:36.731Z,13.47
2023-02-03T09:41:55.629Z,11.73
2023-02-03T09:45:12.953Z,10.83
2023-02-03T09:48:21.699Z,11.00
2023-02-03T09:51:29.002Z,7.80
2023-02-03T09:54:38.998Z,8.60
2023-02-03T09:57:48.410Z,8.90
2023-02-03T10:00:55.639Z,9.60
2023-02-03T10:04:05.565Z,8.03
2023-02-03T10:07:14.108Z,8.13
2023-02-03T10:10:23.154Z,8.23
2023-02-03T10:13:32.546Z,7.30
2023-02-03T10:16:46.544Z,7.10
2023-02-03T10:19:56.362Z,4.00
2023-02-03T10:23:04.126Z,3.47
2023-02-03T10:26:10.403Z,3.17
2023-02-03T10:29:21.292Z,3.63
2023-02-03T10:32:28.275Z,4.37
2023-02-03T10:35:38.202Z,2.53
2023-02-03T10:38:51.906Z,2.20
2023-02-03T10:41:55.919Z,2.83
2023-02-03T10:45:00.706Z,2.83
2023-02-03T10:48:07.243Z,2.75
2023-02-03T10:51:19.205Z,2.53
2023-02-03T10:54:32.025Z,2.40
2023-02-03T10:57:39.278Z,2.67
2023-02-03T11:00:42.854Z,2.65
2023-02-03T11:03:58.062Z,3.03
2023-02-03T11:07:02.919Z,3.50
2023-02-03T11:10:30.363Z,3.83
2023-02-03T11:13:33.878Z,4.70
2023-02-03T11:16:39.896Z,5.73
2023-02-03T11:19:46.167Z,6.03
2023-02-03T11:22:49.968Z,6.70
2023-02-03T11:25:53.574Z,6.63
2023-02-03T11:28:59.901Z,10.20
2023-02-03T11:32:07.828Z,12.20
2023-02-03T11:35:19.505Z,8.40
2023-02-03T11:38:31.833Z,8.33
2023-02-03T11:41:39.148Z,8.50
2023-02-03T11:44:42.430Z,6.10
2023-02-03T11:47:47.966Z,5.50
2023-02-03T11:50:59.616Z,5.50
2023-02-03T11:54:15.732Z,4.50
2023-02-03T11:57:31.866Z,3.60
2023-02-03T12:00:42.802Z,3.20
2023-02-03T12:04:16.972Z,3.10
2023-02-03T12:07:45.086Z,4.57
2023-02-03T12:10:57.719Z,3.87
2023-02-03T12:14:18.650Z,4.37
2023-02-03T12:17:45.460Z,4.73
2023-02-03T12:21:01.432Z,4.00
2023-02-03T12:24:15.537Z,4.23
2023-02-03T12:27:33.124Z,4.10
2023-02-03T12:30:42.404Z,4.37
2023-02-03T12:33:50.535Z,4.80
2023-02-03T12:36:58.635Z,4.00
2023-02-03T12:40:10.488Z,4.50
2023-02-03T12:43:23.074Z,4.90
2023-02-03T12:46:30.995Z,5.00
2023-02-03T12:49:42.668Z,4.87
2023-02-03T12:52:53.514Z,4.80
2023-02-03T12:56:05.262Z,6.47
2023-02-03T12:59:16.093Z,5.60
2023-02-03T13:02:27.469Z,5.60
2023-02-03T13:05:41.359Z,6.40
2023-02-03T13:08:51.681Z,5.80
2023-02-03T13:12:02.852Z,5.50
2023-02-03T13:15:19.800Z,5.80
2023-02-03T13:18:28.945Z,5.80
2023-02-03T13:21:32.368Z,5.50
2023-02-03T13:24:35.785Z,6.30
2023-02-03T13:27:49.671Z,5.67
2023-02-03T13:31:07.350Z,5.93
2023-02-03T13:34:39.448Z,5.00
2023-02-03T13:38:31.098Z,5.10
2023-02-03T13:41:42.603Z,5.13
2023-02-03T13:44:52.257Z,4.90
2023-02-03T13:47:58.474Z,5.50
2023-02-03T13:51:07.797Z,5.67
2023-02-03T13:54:18.163Z,6.90
2023-02-03T13:57:23.871Z,6.27
2023-02-03T14:01:04.027Z,5.83
2023-02-03T14:04:09.106Z,5.67
2023-02-03T14:07:29.776Z,5.30
2023-02-03T14:10:32.928Z,5.10
2023-02-03T14:13:36.099Z,5.10
2023-02-03T14:16:41.892Z,5.27
2023-02-03T14:19:57.100Z,5.63
2023-02-03T14:23:07.889Z,6.17
2023-02-03T14:26:24.479Z,5.50
2023-02-03T14:29:29.572Z,5.30
2023-02-03T14:32:52.773Z,5.37
2023-02-03T14:35:56.012Z,5.33
2023-02-03T14:39:02.523Z,5.83
2023-02-03T14:42:11.260Z,5.20
2023-02-03T14:45:40.299Z,5.70
2023-02-03T14:49:20.762Z,6.13
2023-02-03T14:52:54.799Z,5.70
2023-02-03T14:56:12.275Z,5.60
2023-02-03T14:59:15.720Z,9.10
2023-02-03T15:02:23.283Z,9.03
2023-02-03T15:05:39.849Z,13.23
2023-02-03T15:08:45.701Z,7.80
2023-02-03T15:11:48.992Z,6.40
2023-02-03T15:14:52.212Z,7.10
2023-02-03T15:17:56.948Z,6.17
2023-02-03T15:21:01.663Z,5.57
2023-02-03T15:24:14.241Z,5.20
2023-02-03T15:27:25.559Z,5.50
2023-02-03T15:30:30.618Z,5.23
2023-02-03T15:33:35.303Z,5.93
2023-02-03T15:36:45.287Z,6.83
2023-02-03T15:39:58.705Z,5.93
2023-02-03T15:43:05.192Z,6.50
2023-02-03T15:46:16.771Z,6.57
2023-02-03T15:49:24.553Z,6.50
2023-02-03T15:52:31.646Z,6.53
2023-02-03T15:55:38.629Z,23.67
2023-02-03T15:58:47.053Z,16.40
2023-02-03T16:01:50.666Z,10.47
2023-02-03T16:04:54.529Z,8.23
2023-02-03T16:08:19.172Z,8.90
2023-02-03T16:11:31.353Z,7.23
2023-02-03T16:14:36.361Z,6.50
2023-02-03T16:17:39.914Z,6.27
2023-02-03T16:20:50.928Z,6.83
2023-02-03T16:23:55.864Z,6.90
2023-02-03T16:27:21.907Z,6.80
2023-02-03T16:30:43.944Z,6.17
2023-02-03T16:34:05.099Z,3.10
2023-02-03T16:37:30.914Z,1.53
2023-02-03T16:40:52.824Z,1.00
2023-02-03T16:44:13.333Z,0.80
2023-02-03T16:47:43.172Z,0.80
2023-02-03T16:50:54.012Z,0.70
2023-02-03T16:53:57.513Z,0.87
2023-02-03T16:57:02.755Z,0.83
2023-02-03T17:00:08.781Z,1.50
2023-02-03T17:03:14.704Z,0.93
2023-02-03T17:06:18.130Z,0.73
2023-02-03T17:09:23.609Z,0.80
2023-02-03T17:12:30.847Z,1.43
2023-02-03T17:15:34.439Z,22.33
2023-02-03T17:18:38.502Z,1.53
2023-02-03T17:21:42.667Z,0.97
2023-02-03T17:24:47.012Z,0.90
2023-02-03T17:27:52.374Z,1.37
2023-02-03T17:31:00.373Z,1.17
2023-02-03T17:34:03.853Z,1.70
2023-02-03T17:37:07.611Z,1.50
2023-02-03T17:53:39.580Z,1.20
2023-02-03T17:56:47.903Z,1.00
2023-02-03T17:59:55.329Z,1.23
2023-02-03T18:02:59.214Z,1.50
2023-02-03T18:06:03.421Z,0.80
2023-02-03T18:09:10.715Z,0.80
2023-02-03T18:12:14.084Z,1.03
2023-02-03T18:15:19.865Z,0.90
2023-02-03T18:18:23.249Z,0.83
2023-02-03T18:21:28.806Z,0.70
2023-02-03T18:24:33.922Z,0.90
2023-02-03T18:27:38.669Z,1.13
2023-02-03T18:30:43.784Z,1.20
2023-02-03T18:33:48.362Z,1.10
2023-02-03T18:36:54.514Z,1.43
2023-02-03T18:40:01.276Z,1.23
2023-02-03T18:43:05.445Z,1.60
2023-02-03T18:46:13.943Z,1.43
2023-02-03T18:49:18.621Z,1.90
2023-02-03T18:52:24.112Z,1.70
2023-02-03T18:55:29.213Z,1.10
2023-02-03T18:58:34.397Z,1.13
2023-02-03T19:01:40.821Z,1.17
2023-02-03T19:04:45.408Z,0.90
2023-02-03T19:07:50.346Z,1.13
2023-02-03T19:10:57.962Z,1.50
2023-02-03T19:14:03.925Z,1.00
2023-02-03T19:17:10.764Z,1.20
2023-02-03T19:20:16.154Z,1.27
2023-02-03T19:23:24.031Z,1.00
2023-02-03T19:26:29.605Z,0.90
2023-02-03T19:29:34.362Z,0.87
2023-02-03T19:32:40.622Z,0.80
2023-02-03T19:35:50.041Z,1.03
2023-02-03T19:38:57.791Z,1.00
2023-02-03T19:42:02.712Z,0.90
2023-02-03T19:45:10.685Z,0.70
2023-02-03T19:48:17.391Z,0.70
2023-02-03T19:51:24.542Z,0.60
2023-02-03T19:54:30.665Z,0.97
2023-02-03T19:57:37.790Z,0.90
2023-02-03T20:00:42.736Z,0.90
2023-02-03T20:03:49.540Z,0.80
2023-02-03T20:06:54.164Z,0.53
2023-02-03T20:09:58.839Z,1.10
2023-02-03T20:13:04.441Z,0.93
2023-02-03T20:16:10.014Z,0.80
2023-02-03T20:19:16.665Z,0.67
2023-02-03T20:22:23.156Z,0.70
2023-02-03T20:25:29.134Z,0.90
2023-02-03T20:28:37.391Z,0.90
2023-02-03T20:31:42.583Z,1.13
2023-02-03T20:34:52.240Z,1.90
2023-02-03T20:37:57.453Z,2.30
2023-02-03T20:41:02.865Z,2.00
2023-02-03T20:44:12.456Z,2.47
2023-02-03T20:47:19.961Z,2.60
2023-02-03T20:50:40.517Z,2.43
2023-02-03T20:53:46.890Z,3.20
2023-02-03T20:56:51.672Z,2.77
2023-02-03T20:59:56.142Z,2.47
2023-02-03T21:03:19.120Z,2.60
2023-02-03T21:06:26.652Z,2.43
2023-02-03T21:09:32.066Z,4.00
2023-02-03T21:12:38.131Z,3.90
2023-02-03T21:15:44.526Z,4.07
2023-02-03T21:18:52.284Z,4.20
2023-02-03T21:21:59.628Z,3.97
2023-02-03T21:25:04.824Z,2.93
2023-02-03T21:28:25.743Z,3.37
2023-02-03T21:31:31.657Z,3.60
2023-02-03T21:34:37.744Z,3.00
2023-02-03T21:37:44.059Z,3.30
2023-02-03T21:40:49.276Z,4.30
2023-02-03T21:43:57.086Z,3.30
2023-02-03T21:47:08.825Z,3.30
2023-02-03T21:50:32.227Z,3.33
2023-02-03T21:53:40.854Z,3.13
2023-02-03T21:56:45.704Z,2.67
2023-02-03T21:59:51.297Z,3.20
2023-02-03T22:03:00.402Z,3.20
2023-02-03T22:06:18.578Z,2.07
2023-02-03T22:09:24.678Z,2.90
2023-02-03T22:12:27.928Z,3.47
2023-02-03T22:15:31.717Z,2.70
2023-02-03T22:18:35.485Z,3.30
2023-02-03T22:21:38.836Z,1.90
2023-02-03T22:24:43.487Z,2.53
2023-02-03T22:27:46.728Z,2.40
2023-02-03T22:30:50.032Z,2.23
2023-02-03T22:33:53.321Z,1.80
2023-02-03T22:36:56.516Z,2.10
2023-02-03T22:40:01.221Z,2.00
2023-02-03T22:43:04.655Z,1.40
2023-02-03T22:46:08.120Z,1.20
2023-02-03T22:49:11.488Z,1.23
2023-02-03T22:52:14.793Z,1.60
2023-02-03T22:55:19.429Z,1.67
2023-02-03T22:58:22.646Z,1.60
2023-02-03T23:01:25.817Z,2.43
2023-02-03T23:04:29.037Z,2.20
2023-02-03T23:07:32.251Z,2.07
2023-02-03T23:10:36.884Z,2.07
2023-02-03T23:13:40.037Z,3.93
2023-02-03T23:16:43.195Z,3.50
2023-02-03T23:19:46.393Z,2.70
2023-02-03T23:22:49.614Z,2.30
2023-02-03T23:25:54.167Z,2.33
2023-02-03T23:28:57.354Z,2.23
2023-02-03T23:32:00.587Z,2.80
2023-02-03T23:35:21.760Z,2.70
2023-02-03T23:38:24.967Z,3.10
2023-02-03T23:41:29.476Z,15.67
2023-02-03T23:44:32.658Z,9.67
2023-02-03T23:47:35.951Z,2.80
2023-02-03T23:50:39.578Z,2.60
2023-02-03T23:53:42.757Z,4.17
2023-02-03T23:56:47.300Z,3.10
2023-02-03T23:59:50.513Z,5.43
